Time;durP1;ratioP1;P1;durP2;ratioP2;P2;SDS_P1;SDS_P2;PMS_P1;PMS_P2;Temp;Humidity;BMP_temperature;BMP_pressure;BME280_temperature;BME280_humidity;BME280_pressure;Samples;Min_cycle;Max_cycle;Signal;HPM_P1;HPM_P2
2023/11/25 00:00:42;;;;;;;1.35;0.40;;;17.50;58.40;;;;;;6154932;23;20516;-80
2023/11/25 00:03:09;;;;;;;1.15;0.45;;;17.50;58.40;;;;;;6154856;23;20651;-82
2023/11/25 00:05:35;;;;;;;0.40;0.40;;;17.50;58.40;;;;;;6155935;23;20526;-80
2023/11/25 00:08:00;;;;;;;0.98;0.50;;;17.50;58.50;;;;;;6156432;23;20132;-83
2023/11/25 00:10:26;;;;;;;3.22;0.65;;;17.50;58.50;;;;;;6156080;23;20139;-83
2023/11/25 00:12:53;;;;;;;0.88;0.50;;;17.50;58.50;;;;;;6156411;23;20139;-81
2023/11/25 00:15:19;;;;;;;0.30;0.30;;;17.50;58.30;;;;;;6154509;23;20171;-82
2023/11/25 00:17:45;;;;;;;0.63;0.40;;;17.50;59.20;;;;;;6153292;23;20139;-80
2023/11/25 00:20:14;;;;;;;1.50;0.57;;;17.40;58.30;;;;;;6155804;23;20179;-80
2023/11/25 00:22:41;;;;;;;1.33;0.47;;;17.50;58.50;;;;;;6151969;23;20483;-81
2023/11/25 00:27:37;;;;;;;1.38;0.43;;;17.40;58.50;;;;;;6214702;23;20189;-81
2023/11/25 00:30:04;;;;;;;1.77;0.68;;;17.40;58.50;;;;;;6215396;23;20141;-83
2023/11/25 00:32:30;;;;;;;0.60;0.40;;;17.40;58.40;;;;;;6214734;23;20162;-83
2023/11/25 00:34:56;;;;;;;0.63;0.30;;;17.50;58.50;;;;;;6213925;23;20165;-83
2023/11/25 00:37:22;;;;;;;0.77;0.40;;;17.40;58.50;;;;;;6215439;23;20985;-81
2023/11/25 00:39:48;;;;;;;1.77;0.47;;;17.50;58.20;;;;;;6215073;23;20596;-82
2023/11/25 00:42:15;;;;;;;1.55;0.50;;;17.50;58.40;;;;;;6214919;23;20170;-81
2023/11/25 00:44:40;;;;;;;0.77;0.40;;;17.40;58.30;;;;;;6212638;23;20142;-83
2023/11/25 00:47:11;;;;;;;0.82;0.43;;;17.50;58.30;;;;;;6212384;23;20189;-81
2023/11/25 00:49:38;;;;;;;0.57;0.38;;;17.50;58.50;;;;;;6214484;23;20134;-81
2023/11/25 00:52:06;;;;;;;0.50;0.50;;;17.50;58.30;;;;;;6213749;23;20464;-84
2023/11/25 00:54:32;;;;;;;3.03;0.80;;;17.40;58.50;;;;;;6212723;23;20134;-79
2023/11/25 00:56:58;;;;;;;1.05;0.45;;;17.40;58.50;;;;;;6188222;23;20512;-80
2023/11/25 00:59:24;;;;;;;1.17;0.60;;;17.40;58.50;;;;;;6213396;23;20166;-83
2023/11/25 01:01:49;;;;;;;0.88;0.32;;;17.40;58.40;;;;;;6186961;23;20153;-83
2023/11/25 01:04:15;;;;;;;1.58;0.60;;;17.40;58.30;;;;;;6215133;23;20130;-82
2023/11/25 01:06:48;;;;;;;1.80;0.43;;;17.40;58.50;;;;;;6215779;23;20136;-81
2023/11/25 01:09:16;;;;;;;1.35;0.40;;;17.40;58.50;;;;;;6211873;23;20134;-80
2023/11/25 01:11:43;;;;;;;0.65;0.40;;;17.40;58.60;;;;;;6184819;23;20786;-81
2023/11/25 01:14:08;;;;;;;1.25;0.50;;;17.40;58.50;;;;;;6212304;23;20451;-83
2023/11/25 01:16:35;;;;;;;0.50;0.30;;;17.40;58.40;;;;;;6187000;23;20150;-82
2023/11/25 01:19:01;;;;;;;0.88;0.47;;;17.40;58.50;;;;;;6215160;23;20184;-83
2023/11/25 01:21:26;;;;;;;0.77;0.40;;;17.40;58.40;;;;;;6189278;23;20209;-79
2023/11/25 01:23:52;;;;;;;1.77;0.60;;;17.40;58.20;;;;;;6215366;23;20217;-81
2023/11/25 01:26:22;;;;;;;0.65;0.40;;;17.40;58.20;;;;;;6188180;23;20198;-82
2023/11/25 01:28:48;;;;;;;0.50;0.30;;;17.40;58.60;;;;;;6189166;23;20173;-83
2023/11/25 01:31:14;;;;;;;0.82;0.43;;;17.30;58.60;;;;;;6188686;23;20142;-79
2023/11/25 01:33:40;;;;;;;1.40;0.50;;;17.40;58.60;;;;;;6188683;23;20158;-80
2023/11/25 01:36:09;;;;;;;0.77;0.40;;;17.40;58.60;;;;;;6215747;23;20142;-81
2023/11/25 01:38:36;;;;;;;0.40;0.40;;;17.40;58.50;;;;;;6214910;23;20137;-80
2023/11/25 01:41:02;;;;;;;0.95;0.75;;;17.40;58.40;;;;;;6214787;23;20149;-82
2023/11/25 01:43:28;;;;;;;1.90;0.50;;;17.40;58.30;;;;;;6213473;23;20154;-79
2023/11/25 01:45:57;;;;;;;0.90;0.52;;;17.40;58.50;;;;;;6214402;23;20149;-82
2023/11/25 01:48:23;;;;;;;0.50;0.40;;;17.40;58.50;;;;;;6212132;23;20134;-83
2023/11/25 01:50:49;;;;;;;0.80;0.57;;;17.40;58.50;;;;;;6211976;23;20210;-83
2023/11/25 01:53:19;;;;;;;0.52;0.52;;;17.30;58.50;;;;;;6215163;23;20554;-81
2023/11/25 01:55:45;;;;;;;1.10;0.50;;;17.40;58.60;;;;;;6186434;23;20512;-80
2023/11/25 01:58:15;;;;;;;1.08;0.60;;;17.40;58.40;;;;;;6186768;23;20196;-81
2023/11/25 02:00:43;;;;;;;1.33;0.52;;;17.40;58.50;;;;;;6213785;23;20549;-81
2023/11/25 02:03:09;;;;;;;0.32;0.30;;;17.40;58.60;;;;;;6167927;23;20203;-81
2023/11/25 02:08:02;;;;;;;1.38;0.43;;;17.40;58.50;;;;;;6156339;23;20209;-82
2023/11/25 02:10:28;;;;;;;0.50;0.40;;;17.40;58.30;;;;;;6183152;23;20203;-82
2023/11/25 02:12:54;;;;;;;0.90;0.60;;;17.40;58.50;;;;;;6179321;23;20135;-83
2023/11/25 02:15:20;;;;;;;0.95;0.63;;;17.40;58.50;;;;;;6183195;23;20155;-79
2023/11/25 02:17:46;;;;;;;0.40;0.38;;;17.40;58.50;;;;;;6180039;23;20836;-83
2023/11/25 02:20:13;;;;;;;1.00;0.50;;;17.40;58.50;;;;;;6183587;23;20166;-82
2023/11/25 02:22:57;;;;;;;1.20;0.70;;;17.30;58.60;;;;;;6181854;23;20185;-80
2023/11/25 02:25:23;;;;;;;1.27;0.60;;;17.30;58.30;;;;;;6155743;23;20131;-81
2023/11/25 02:27:50;;;;;;;0.70;0.60;;;17.40;58.40;;;;;;6183604;23;20157;-83
2023/11/25 02:30:17;;;;;;;0.95;0.60;;;17.40;58.60;;;;;;6182894;23;20139;-83
2023/11/25 02:32:43;;;;;;;0.65;0.40;;;17.40;58.60;;;;;;6157519;23;20157;-83
2023/11/25 02:35:11;;;;;;;1.08;0.60;;;17.30;58.40;;;;;;6158301;23;20157;-84
2023/11/25 02:37:37;;;;;;;1.98;0.40;;;17.30;58.50;;;;;;6155228;23;20538;-82
2023/11/25 02:40:05;;;;;;;0.68;0.50;;;17.30;58.20;;;;;;6180698;23;20173;-84
2023/11/25 02:44:57;;;;;;;0.93;0.50;;;17.30;58.60;;;;;;6182732;23;20216;-79
2023/11/25 02:47:23;;;;;;;0.47;0.47;;;17.30;58.50;;;;;;6185440;23;20126;-80
2023/11/25 02:49:50;;;;;;;1.50;0.50;;;17.30;58.40;;;;;;6185414;23;20585;-82
2023/11/25 02:52:16;;;;;;;0.80;0.50;;;17.30;58.50;;;;;;6185534;23;20127;-82
2023/11/25 02:54:41;;;;;;;1.23;0.45;;;17.30;58.50;;;;;;6184186;23;20181;-84
2023/11/25 02:57:07;;;;;;;1.48;0.52;;;17.30;58.50;;;;;;6185924;23;20634;-83
2023/11/25 02:59:35;;;;;;;0.70;0.50;;;17.30;58.50;;;;;;6187648;23;20577;-81
2023/11/25 03:02:09;;;;;;;1.75;0.65;;;17.30;58.60;;;;;;6186137;23;20170;-79
2023/11/25 03:04:36;;;;;;;0.85;0.50;;;17.30;58.50;;;;;;6187105;23;20138;-83
2023/11/25 03:07:04;;;;;;;0.60;0.55;;;17.30;58.50;;;;;;6186874;23;20142;-83
2023/11/25 03:09:30;;;;;;;0.40;0.40;;;17.30;58.60;;;;;;6187429;23;20127;-82
2023/11/25 03:11:58;;;;;;;1.33;0.60;;;17.30;58.50;;;;;;6187116;23;20134;-82
2023/11/25 03:14:24;;;;;;;1.65;0.60;;;17.30;58.50;;;;;;6187084;23;20201;-83
2023/11/25 03:19:18;;;;;;;1.05;0.60;;;17.30;58.50;;;;;;6186523;23;20294;-79
2023/11/25 03:21:44;;;;;;;0.68;0.43;;;17.30;58.50;;;;;;6185173;23;20206;-82
2023/11/25 03:24:10;;;;;;;1.85;0.57;;;17.30;58.60;;;;;;6188383;23;20466;-81
2023/11/25 03:26:36;;;;;;;0.60;0.55;;;17.30;58.40;;;;;;6187704;23;20562;-83
2023/11/25 03:29:02;;;;;;;0.95;0.38;;;17.30;58.30;;;;;;6186702;23;20146;-80
2023/11/25 03:31:28;;;;;;;1.00;0.68;;;17.30;58.40;;;;;;6187476;23;20139;-82
2023/11/25 03:33:54;;;;;;;0.98;0.60;;;17.20;58.60;;;;;;6160226;23;20137;-83
2023/11/25 03:36:20;;;;;;;0.60;0.50;;;17.30;58.50;;;;;;6186287;23;20159;-81
2023/11/25 03:38:46;;;;;;;0.57;0.52;;;17.30;58.50;;;;;;6157879;23;20142;-82
2023/11/25 03:41:12;;;;;;;1.38;0.50;;;17.30;58.20;;;;;;6187924;23;20131;-81
2023/11/25 03:43:38;;;;;;;1.58;0.60;;;17.30;58.40;;;;;;6187034;23;20135;-81
2023/11/25 03:48:37;;;;;;;0.73;0.52;;;17.30;58.50;;;;;;6215365;23;20602;-79
2023/11/25 03:51:04;;;;;;;1.38;0.52;;;17.30;58.60;;;;;;6216371;23;20184;-84
2023/11/25 03:53:31;;;;;;;1.00;0.65;;;17.30;58.40;;;;;;6191776;23;20895;-82
2023/11/25 03:55:59;;;;;;;0.63;0.45;;;17.30;58.60;;;;;;6165623;23;20146;-81
2023/11/25 03:58:25;;;;;;;0.50;0.50;;;17.30;58.50;;;;;;6214614;23;20632;-81
2023/11/25 04:00:51;;;;;;;1.33;0.60;;;17.20;58.60;;;;;;6214984;23;20243;-81
2023/11/25 04:03:17;;;;;;;2.28;0.50;;;17.20;58.50;;;;;;6215489;23;20134;-83
2023/11/25 04:05:43;;;;;;;1.13;0.55;;;17.30;58.60;;;;;;6213746;23;20600;-82
2023/11/25 04:08:09;;;;;;;1.20;0.60;;;17.30;58.40;;;;;;6216694;23;20138;-83
2023/11/25 04:10:36;;;;;;;0.70;0.60;;;17.30;58.60;;;;;;6189635;23;20134;-83
2023/11/25 04:13:02;;;;;;;0.82;0.60;;;17.30;58.60;;;;;;6214244;23;20195;-83
2023/11/25 04:15:29;;;;;;;0.90;0.50;;;17.20;58.40;;;;;;6215049;23;20217;-82
2023/11/25 04:17:55;;;;;;;1.88;0.80;;;17.30;58.50;;;;;;6213473;23;20226;-81
2023/11/25 04:20:24;;;;;;;1.55;0.60;;;17.30;58.50;;;;;;6213906;23;20612;-81
2023/11/25 04:22:50;;;;;;;1.02;0.80;;;17.30;58.80;;;;;;6187709;23;20186;-81
2023/11/25 04:25:16;;;;;;;0.70;0.50;;;17.30;58.50;;;;;;6215127;23;20158;-82
2023/11/25 04:27:43;;;;;;;2.97;0.70;;;17.30;58.50;;;;;;6213450;23;20193;-81
2023/11/25 04:30:09;;;;;;;0.85;0.60;;;17.30;58.40;;;;;;6214611;23;20221;-80
2023/11/25 04:32:38;;;;;;;0.70;0.70;;;17.20;58.40;;;;;;6188930;23;20127;-82
2023/11/25 04:35:05;;;;;;;2.15;0.70;;;17.20;58.50;;;;;;6214607;23;20221;-81
2023/11/25 04:37:31;;;;;;;0.88;0.50;;;17.30;58.60;;;;;;6211603;23;20146;-82
2023/11/25 04:39:57;;;;;;;1.45;0.60;;;17.20;58.50;;;;;;6211835;23;20166;-82
2023/11/25 04:42:23;;;;;;;1.65;0.55;;;17.20;58.50;;;;;;6159808;23;20142;-82
2023/11/25 04:44:49;;;;;;;3.45;0.60;;;17.20;58.40;;;;;;6186574;23;20217;-80
2023/11/25 04:47:15;;;;;;;0.55;0.55;;;17.20;58.40;;;;;;6212078;23;20192;-80
2023/11/25 04:49:42;;;;;;;0.98;0.60;;;17.20;58.40;;;;;;6212452;23;20146;-83
2023/11/25 04:52:08;;;;;;;0.60;0.40;;;17.20;58.30;;;;;;6214722;23;20213;-81
2023/11/25 04:54:34;;;;;;;1.42;0.77;;;17.20;58.50;;;;;;6211703;23;20170;-83
2023/11/25 04:57:01;;;;;;;1.27;0.60;;;17.20;58.50;;;;;;6214754;23;20145;-80
2023/11/25 04:59:27;;;;;;;0.77;0.57;;;17.20;58.30;;;;;;6186539;23;20230;-84
2023/11/25 05:06:44;;;;;;;2.25;0.63;;;17.20;58.40;;;;;;6182950;23;20206;-79
2023/11/25 05:09:13;;;;;;;2.58;0.60;;;17.20;58.40;;;;;;6156782;23;20139;-82
2023/11/25 05:11:40;;;;;;;0.63;0.50;;;17.20;58.40;;;;;;6156975;23;20135;-82
2023/11/25 05:14:07;;;;;;;0.60;0.60;;;17.20;58.50;;;;;;6184122;23;20143;-84
2023/11/25 05:16:32;;;;;;;1.17;0.60;;;17.20;58.50;;;;;;6185929;23;20146;-82
2023/11/25 05:18:58;;;;;;;0.57;0.47;;;17.20;58.50;;;;;;6183967;23;20175;-83
2023/11/25 05:21:24;;;;;;;0.50;0.50;;;17.20;58.30;;;;;;6185776;23;20447;-80
2023/11/25 05:23:50;;;;;;;1.30;0.60;;;17.20;58.40;;;;;;6184325;23;20135;-82
2023/11/25 05:26:17;;;;;;;1.60;0.40;;;17.20;58.50;;;;;;6184253;23;20186;-79
2023/11/25 05:28:43;;;;;;;2.30;0.52;;;17.20;58.40;;;;;;6184388;23;20139;-83
2023/11/25 05:31:09;;;;;;;0.47;0.47;;;17.20;58.50;;;;;;6183519;23;20191;-80
2023/11/25 05:33:35;;;;;;;1.33;0.63;;;17.20;58.30;;;;;;6183738;23;20432;-84
2023/11/25 05:36:01;;;;;;;0.80;0.60;;;17.20;58.40;;;;;;6182425;23;20135;-80
2023/11/25 05:38:28;;;;;;;1.08;0.60;;;17.20;58.40;;;;;;6182893;23;20729;-80
2023/11/25 05:40:53;;;;;;;2.47;0.60;;;17.20;58.50;;;;;;6155354;23;20206;-81
2023/11/25 05:43:19;;;;;;;1.25;0.70;;;17.20;58.50;;;;;;6155152;23;20145;-83
2023/11/25 05:45:46;;;;;;;1.10;0.50;;;17.20;58.20;;;;;;6154745;23;20135;-82
2023/11/25 05:48:12;;;;;;;0.70;0.70;;;17.20;58.30;;;;;;6182851;23;20471;-82
2023/11/25 05:50:38;;;;;;;0.50;0.50;;;17.10;58.40;;;;;;6184671;23;20139;-81
2023/11/25 05:53:04;;;;;;;0.93;0.50;;;17.20;58.40;;;;;;6158156;23;20149;-80
2023/11/25 05:55:31;;;;;;;1.02;0.63;;;17.10;58.40;;;;;;6157580;23;20225;-82
2023/11/25 05:57:57;;;;;;;0.52;0.35;;;17.20;58.40;;;;;;6183659;23;20131;-82
2023/11/25 06:00:23;;;;;;;1.13;0.60;;;17.20;58.20;;;;;;6158707;23;20166;-82
2023/11/25 06:02:49;;;;;;;0.65;0.60;;;17.20;58.30;;;;;;6182419;23;20227;-83
2023/11/25 06:05:15;;;;;;;0.70;0.50;;;17.20;58.40;;;;;;6132681;23;20174;-82
2023/11/25 06:07:40;;;;;;;0.70;0.50;;;17.20;58.30;;;;;;6183648;23;20139;-84
2023/11/25 06:10:09;;;;;;;1.60;0.50;;;17.20;58.50;;;;;;6157760;23;20225;-82
2023/11/25 06:12:34;;;;;;;0.93;0.60;;;17.20;58.40;;;;;;6181651;23;20135;-82
2023/11/25 06:15:00;;;;;;;1.10;0.55;;;17.20;58.50;;;;;;6182717;23;20274;-80
2023/11/25 06:17:27;;;;;;;0.98;0.40;;;17.20;58.30;;;;;;6184636;23;20132;-82
2023/11/25 06:19:53;;;;;;;0.90;0.50;;;17.20;58.30;;;;;;6130141;23;20186;-81
2023/11/25 06:22:20;;;;;;;0.85;0.63;;;17.20;58.30;;;;;;6182903;23;20518;-81
2023/11/25 06:24:46;;;;;;;1.08;0.80;;;17.20;58.50;;;;;;6180042;23;20159;-81
2023/11/25 06:27:12;;;;;;;1.52;0.60;;;17.30;58.30;;;;;;6177207;23;20574;-83
2023/11/25 06:29:39;;;;;;;0.47;0.47;;;17.20;58.30;;;;;;6183789;23;20169;-83
2023/11/25 06:32:08;;;;;;;0.90;0.43;;;17.20;58.00;;;;;;6184406;23;20138;-82
2023/11/25 06:34:34;;;;;;;1.10;0.68;;;17.20;58.30;;;;;;6157228;23;20161;-81
2023/11/25 06:37:00;;;;;;;0.40;0.38;;;17.20;58.20;;;;;;6132795;23;20186;-83
2023/11/25 06:39:31;;;;;;;0.90;0.55;;;17.20;58.30;;;;;;6183012;23;20249;-83
2023/11/25 06:41:58;;;;;;;0.70;0.50;;;17.20;58.10;;;;;;6183833;23;20134;-79
2023/11/25 06:44:24;;;;;;;0.80;0.50;;;17.20;58.20;;;;;;6184511;23;20565;-79
2023/11/25 06:46:50;;;;;;;1.35;0.47;;;17.20;58.20;;;;;;6181832;23;20571;-79
2023/11/25 06:49:16;;;;;;;0.70;0.50;;;17.20;58.00;;;;;;6155045;23;20471;-80
2023/11/25 06:51:42;;;;;;;0.47;0.40;;;17.20;58.20;;;;;;6182856;23;20142;-79
2023/11/25 06:54:08;;;;;;;1.65;0.52;;;17.20;58.20;;;;;;6177642;23;20569;-79
2023/11/25 06:56:35;;;;;;;1.20;0.70;;;17.20;58.20;;;;;;6181258;23;20570;-81
2023/11/25 06:59:02;;;;;;;1.42;0.70;;;17.20;58.20;;;;;;6156583;23;20171;-79
2023/11/25 07:01:30;;;;;;;0.70;0.50;;;17.20;58.20;;;;;;6184801;23;20609;-81
2023/11/25 07:03:55;;;;;;;1.00;0.70;;;17.20;58.20;;;;;;6179527;23;20897;-83
2023/11/25 07:06:21;;;;;;;1.20;0.70;;;17.20;58.20;;;;;;6183673;23;20170;-83
2023/11/25 07:08:47;;;;;;;1.27;0.65;;;17.20;58.20;;;;;;6179269;23;20143;-83
2023/11/25 07:11:14;;;;;;;0.65;0.50;;;17.20;58.10;;;;;;6180929;23;20131;-83
2023/11/25 07:13:42;;;;;;;0.55;0.50;;;17.20;58.10;;;;;;6175992;23;20139;-80
2023/11/25 07:16:11;;;;;;;0.60;0.55;;;17.20;58.10;;;;;;6170370;23;20248;-84
2023/11/25 07:18:42;;;;;;;0.75;0.75;;;17.20;58.10;;;;;;6152359;23;20628;-81
2023/11/25 07:21:11;;;;;;;0.77;0.50;;;17.20;58.10;;;;;;6145272;23;20250;-83
2023/11/25 07:23:38;;;;;;;0.82;0.57;;;17.20;58.00;;;;;;6123379;23;20195;-79
2023/11/25 07:26:05;;;;;;;0.50;0.50;;;17.20;58.20;;;;;;6125538;23;20132;-80
2023/11/25 07:28:32;;;;;;;1.42;0.63;;;17.20;58.00;;;;;;6122064;23;20228;-79
2023/11/25 07:30:59;;;;;;;0.90;0.40;;;17.20;58.10;;;;;;6148109;23;20214;-81
2023/11/25 07:33:25;;;;;;;0.95;0.70;;;17.20;57.90;;;;;;6152270;23;20239;-83
2023/11/25 07:35:51;;;;;;;1.30;0.55;;;17.20;57.90;;;;;;6149686;23;20167;-82
2023/11/25 07:38:17;;;;;;;2.10;0.57;;;17.20;57.90;;;;;;6147796;23;20155;-80
2023/11/25 07:40:43;;;;;;;1.13;0.50;;;17.20;58.10;;;;;;6149146;23;20482;-83
2023/11/25 07:43:09;;;;;;;1.00;0.50;;;17.20;58.10;;;;;;6151902;23;20202;-80
2023/11/25 07:45:35;;;;;;;1.00;0.57;;;17.20;58.70;;;;;;6152138;23;20143;-81
2023/11/25 07:48:00;;;;;;;1.38;0.80;;;17.20;57.80;;;;;;6159223;23;20202;-84
2023/11/25 07:50:26;;;;;;;3.60;0.70;;;17.30;57.80;;;;;;6186125;23;20447;-84
2023/11/25 07:52:52;;;;;;;1.08;0.60;;;17.20;58.00;;;;;;6186087;23;20169;-86
2023/11/25 07:55:19;;;;;;;0.73;0.55;;;17.30;57.80;;;;;;6186632;23;20139;-84
2023/11/25 07:57:49;;;;;;;1.15;0.50;;;17.30;57.50;;;;;;6162758;23;20553;-83
2023/11/25 08:00:16;;;;;;;0.93;0.63;;;17.30;57.60;;;;;;6163583;23;20258;-85
2023/11/25 08:02:43;;;;;;;0.82;0.60;;;17.40;57.60;;;;;;6187416;23;20200;-86
2023/11/25 08:05:11;;;;;;;2.65;0.70;;;17.30;57.70;;;;;;6160487;23;20135;-84
2023/11/25 08:07:37;;;;;;;2.17;0.50;;;17.30;57.80;;;;;;6186793;23;20577;-82
2023/11/25 08:10:07;;;;;;;1.98;0.70;;;17.40;57.60;;;;;;6160795;23;20189;-84
2023/11/25 08:12:33;;;;;;;0.70;0.50;;;17.50;56.80;;;;;;6113218;23;20165;-80
2023/11/25 08:14:59;;;;;;;2.40;0.50;;;17.50;56.80;;;;;;6189075;23;20131;-85
2023/11/25 08:19:52;;;;;;;2.80;0.60;;;17.50;57.30;;;;;;6185588;23;20676;-83
2023/11/25 08:22:18;;;;;;;4.10;0.55;;;17.50;56.60;;;;;;6136838;23;20151;-84
2023/11/25 08:24:47;;;;;;;5.97;0.80;;;17.60;56.60;;;;;;6188189;23;20214;-86
2023/11/25 08:27:13;;;;;;;0.68;0.50;;;17.60;56.70;;;;;;6111924;23;20514;-84
2023/11/25 08:29:39;;;;;;;2.97;0.60;;;17.70;56.00;;;;;;6161650;23;20146;-82
2023/11/25 08:32:07;;;;;;;5.97;0.60;;;17.70;55.90;;;;;;6187650;23;20139;-83
2023/11/25 08:34:33;;;;;;;0.88;0.50;;;17.70;55.80;;;;;;6186885;23;20135;-82
2023/11/25 08:36:59;;;;;;;0.82;0.50;;;17.70;55.30;;;;;;6136212;23;20223;-85
2023/11/25 08:39:25;;;;;;;3.90;0.73;;;17.70;55.40;;;;;;6161212;23;20606;-83
2023/11/25 08:41:52;;;;;;;2.60;0.70;;;17.70;55.50;;;;;;6112703;23;20150;-84
2023/11/25 08:44:20;;;;;;;1.30;0.68;;;17.70;54.90;;;;;;6162317;23;20672;-84
2023/11/25 08:46:46;;;;;;;4.97;0.60;;;17.80;54.80;;;;;;6140767;23;20154;-86
2023/11/25 08:49:13;;;;;;;1.25;0.60;;;17.80;54.40;;;;;;6136309;23;20288;-86
2023/11/25 08:51:41;;;;;;;1.77;0.57;;;17.80;55.00;;;;;;6112520;23;20139;-84
2023/11/25 08:54:09;;;;;;;1.35;0.70;;;17.80;55.00;;;;;;6094119;23;20180;-82
2023/11/25 08:56:40;;;;;;;2.22;0.57;;;17.80;56.00;;;;;;6070779;23;20157;-84
2023/11/25 08:59:17;;;;;;;2.55;0.60;;;17.80;55.30;;;;;;6037683;23;20281;-84
2023/11/25 09:02:08;;;;;;;1.88;0.70;;;17.90;55.00;;;;;;6067191;23;20188;-80
2023/11/25 09:04:38;;;;;;;1.20;0.55;;;17.90;55.60;;;;;;6045921;23;20165;-83
2023/11/25 09:07:07;;;;;;;1.30;0.65;;;17.80;55.20;;;;;;6037181;23;20198;-82
2023/11/25 09:09:35;;;;;;;2.78;0.90;;;17.90;55.90;;;;;;5966856;23;20693;-82
2023/11/25 09:12:16;;;;;;;3.75;0.70;;;17.90;55.50;;;;;;6013144;23;20166;-82
2023/11/25 09:15:00;;;;;;;3.75;0.70;;;17.90;55.90;;;;;;5991797;23;20151;-84
2023/11/25 09:17:26;;;;;;;2.05;0.47;;;17.90;55.40;;;;;;6011225;23;20286;-84
2023/11/25 09:19:52;;;;;;;2.33;0.75;;;18.00;55.30;;;;;;6013475;23;20293;-81
2023/11/25 09:22:17;;;;;;;4.10;0.60;;;18.00;55.30;;;;;;5990817;23;20566;-80
2023/11/25 09:24:44;;;;;;;1.73;0.50;;;18.00;56.10;;;;;;6023186;23;20466;-83
2023/11/25 09:27:14;;;;;;;2.38;0.65;;;18.10;54.90;;;;;;6042938;23;20245;-83
2023/11/25 09:29:42;;;;;;;2.22;0.57;;;18.20;54.60;;;;;;6051138;23;20213;-81
2023/11/25 09:32:15;;;;;;;2.00;0.70;;;18.10;55.20;;;;;;6071305;23;20157;-82
2023/11/25 09:34:49;;;;;;;2.03;0.70;;;18.10;55.10;;;;;;6023195;23;20157;-82
2023/11/25 09:37:24;;;;;;;3.92;0.90;;;18.20;55.40;;;;;;6084502;23;20152;-82
2023/11/25 09:39:50;;;;;;;2.45;0.47;;;18.20;54.50;;;;;;6157147;23;20286;-81
2023/11/25 09:42:25;;;;;;;4.25;0.60;;;18.30;55.00;;;;;;6132477;23;20132;-83
2023/11/25 09:44:53;;;;;;;5.25;0.75;;;18.40;54.90;;;;;;6108128;23;20147;-81
2023/11/25 09:47:23;;;;;;;4.43;0.50;;;18.40;54.60;;;;;;6136318;23;20139;-80
2023/11/25 09:50:01;;;;;;;4.45;0.80;;;18.30;55.30;;;;;;6163162;23;20139;-83
2023/11/25 09:52:30;;;;;;;2.13;0.50;;;18.30;55.80;;;;;;6136321;23;20207;-80
2023/11/25 09:54:58;;;;;;;3.22;0.65;;;18.30;55.80;;;;;;6158641;23;20186;-83
2023/11/25 09:57:32;;;;;;;2.63;0.80;;;18.30;55.50;;;;;;6110015;23;20162;-83
2023/11/25 10:00:05;;;;;;;1.92;0.60;;;18.30;55.80;;;;;;6159872;23;20479;-82
2023/11/25 10:02:31;;;;;;;0.75;0.47;;;18.40;55.70;;;;;;6067303;23;20151;-85
2023/11/25 10:04:57;;;;;;;6.43;0.50;;;18.40;53.90;;;;;;6133093;23;20227;-84
2023/11/25 10:07:42;;;;;;;3.72;0.95;;;18.50;55.00;;;;;;6138586;23;20258;-84
2023/11/25 10:10:10;;;;;;;7.05;1.00;;;18.50;54.60;;;;;;6086892;23;20151;-84
2023/11/25 10:12:42;;;;;;;4.53;0.70;;;18.40;55.00;;;;;;6158499;23;20136;-84
2023/11/25 10:15:10;;;;;;;8.27;0.88;;;18.40;54.90;;;;;;6107616;23;20151;-83
2023/11/25 10:17:36;;;;;;;3.90;0.88;;;18.40;54.20;;;;;;6155767;23;20206;-83
2023/11/25 10:20:09;;;;;;;4.95;0.70;;;18.50;54.80;;;;;;6153809;23;20183;-82
2023/11/25 10:22:44;;;;;;;11.35;1.27;;;18.50;55.10;;;;;;6082766;23;20158;-81
2023/11/25 10:25:11;;;;;;;5.05;1.00;;;18.40;55.60;;;;;;6106234;23;20559;-81
2023/11/25 10:27:38;;;;;;;6.35;0.90;;;18.40;56.20;;;;;;6154775;23;20136;-83
2023/11/25 10:30:06;;;;;;;7.95;1.05;;;18.40;55.80;;;;;;6154585;23;20152;-83
2023/11/25 10:32:34;;;;;;;4.00;0.93;;;18.40;56.20;;;;;;6129979;23;20256;-83
2023/11/25 10:35:00;;;;;;;5.05;0.80;;;18.40;55.80;;;;;;6157894;23;20372;-81
2023/11/25 10:37:26;;;;;;;6.72;1.00;;;18.40;55.50;;;;;;6160603;23;20131;-82
2023/11/25 10:39:52;;;;;;;8.73;1.00;;;18.40;56.10;;;;;;6135837;23;20170;-82
2023/11/25 10:42:23;;;;;;;4.97;0.90;;;18.40;56.80;;;;;;6159933;23;20578;-82
2023/11/25 10:44:49;;;;;;;5.25;0.68;;;18.40;55.80;;;;;;6110458;23;20158;-80
2023/11/25 10:47:30;;;;;;;5.68;0.73;;;18.50;54.90;;;;;;6135298;23;20154;-82
2023/11/25 10:49:56;;;;;;;4.43;0.88;;;18.50;54.90;;;;;;6163531;23;20226;-80
2023/11/25 10:52:24;;;;;;;2.70;0.80;;;18.60;57.20;;;;;;6160755;23;20139;-79
2023/11/25 10:54:51;;;;;;;5.55;1.20;;;18.60;55.80;;;;;;6159389;23;20135;-83
2023/11/25 10:57:18;;;;;;;13.93;1.35;;;18.50;56.80;;;;;;6136056;23;20131;-84
2023/11/25 10:59:44;;;;;;;6.25;1.50;;;18.60;57.30;;;;;;6187422;23;20170;-83
2023/11/25 11:02:14;;;;;;;7.28;1.25;;;18.70;56.60;;;;;;6186990;23;20206;-80
2023/11/25 11:04:48;;;;;;;4.80;0.90;;;18.60;56.60;;;;;;6186825;23;20158;-82
2023/11/25 11:07:15;;;;;;;4.43;0.80;;;18.60;54.90;;;;;;6161336;23;20215;-80
2023/11/25 11:09:42;;;;;;;4.90;0.95;;;18.50;55.80;;;;;;6161506;23;20176;-81
2023/11/25 11:12:14;;;;;;;1.88;0.88;;;18.50;55.80;;;;;;6163947;23;20135;-78
2023/11/25 11:14:43;;;;;;;7.18;1.00;;;18.50;56.20;;;;;;6114820;23;20153;-80
2023/11/25 11:17:21;;;;;;;5.82;1.10;;;18.50;55.50;;;;;;6189371;23;20131;-80
2023/11/25 11:19:47;;;;;;;3.15;1.02;;;18.50;55.50;;;;;;6102393;23;20204;-79
2023/11/25 11:22:20;;;;;;;3.45;0.82;;;18.40;54.70;;;;;;6104769;23;20178;-80
2023/11/25 11:25:02;;;;;;;5.38;0.55;;;18.50;54.80;;;;;;6034027;23;20160;-80
2023/11/25 11:27:35;;;;;;;8.50;0.75;;;18.50;54.00;;;;;;6074604;23;20232;-81
2023/11/25 11:30:10;;;;;;;3.75;0.70;;;18.50;54.60;;;;;;6075465;23;20188;-80
2023/11/25 11:32:36;;;;;;;2.03;0.70;;;18.50;53.20;;;;;;6077629;23;20164;-80
2023/11/25 11:35:08;;;;;;;6.47;1.45;;;18.60;53.30;;;;;;6051440;23;20167;-81
2023/11/25 11:37:40;;;;;;;3.50;1.30;;;18.60;53.00;;;;;;6099296;23;20193;-78
2023/11/25 11:40:15;;;;;;;5.88;1.02;;;18.50;53.30;;;;;;6075211;23;20195;-80
2023/11/25 11:42:45;;;;;;;8.05;1.08;;;18.50;53.50;;;;;;6030267;23;20235;-80
2023/11/25 11:45:22;;;;;;;10.65;1.63;;;18.50;53.30;;;;;;6086256;23;20149;-79
2023/11/25 11:47:56;;;;;;;12.27;0.90;;;18.50;55.80;;;;;;6040321;23;20279;-81
2023/11/25 11:50:29;;;;;;;6.40;0.95;;;18.50;54.60;;;;;;6087032;23;20155;-81
2023/11/25 11:53:13;;;;;;;4.85;0.80;;;18.50;54.10;;;;;;6101702;23;20175;-82
2023/11/25 11:55:48;;;;;;;11.63;1.23;;;18.50;55.00;;;;;;6098375;23;20635;-80
2023/11/25 11:58:20;;;;;;;10.20;1.10;;;18.60;55.90;;;;;;6102036;23;20150;-82
2023/11/25 12:01:08;;;;;;;11.45;1.00;;;18.60;55.50;;;;;;6112680;23;20222;-80
2023/11/25 12:03:41;;;;;;;4.70;1.42;;;18.60;56.70;;;;;;6092047;23;20211;-83
2023/11/25 12:06:16;;;;;;;10.48;1.20;;;18.50;56.40;;;;;;6135249;23;20158;-82
2023/11/25 12:08:44;;;;;;;13.60;1.40;;;18.50;57.00;;;;;;6137174;23;20236;-85
2023/11/25 12:11:12;;;;;;;11.95;1.25;;;18.50;56.40;;;;;;6161625;23;20193;-83
2023/11/25 12:13:42;;;;;;;11.18;1.45;;;18.50;56.90;;;;;;6112918;23;20143;-84
2023/11/25 12:16:46;;;;;;;8.43;1.27;;;18.50;56.50;;;;;;6191616;23;20139;-84
2023/11/25 12:19:17;;;;;;;11.88;0.98;;;18.50;56.40;;;;;;5999397;23;20236;-81
2023/11/25 12:21:57;;;;;;;12.38;1.20;;;18.60;55.60;;;;;;6015270;23;20159;-85
2023/11/25 12:24:22;;;;;;;13.48;0.88;;;18.70;56.20;;;;;;5992792;23;20158;-84
2023/11/25 12:26:53;;;;;;;8.25;1.08;;;18.60;55.40;;;;;;6017573;23;20146;-83
2023/11/25 12:29:23;;;;;;;6.65;1.23;;;18.60;56.10;;;;;;6015831;23;20214;-83
2023/11/25 12:31:52;;;;;;;10.05;1.35;;;18.60;55.90;;;;;;5995027;23;20147;-83
2023/11/25 12:34:20;;;;;;;8.98;1.25;;;18.50;56.10;;;;;;5995074;23;20471;-80
2023/11/25 12:36:45;;;;;;;8.27;1.20;;;18.60;56.70;;;;;;5994527;23;20217;-82
2023/11/25 12:39:12;;;;;;;8.48;1.10;;;18.60;56.30;;;;;;6017470;23;20201;-81
2023/11/25 12:41:39;;;;;;;7.30;1.20;;;18.60;55.80;;;;;;6042198;23;20174;-80
2023/11/25 12:44:09;;;;;;;6.07;1.17;;;18.60;55.50;;;;;;6016068;23;20166;-82
2023/11/25 12:46:38;;;;;;;10.27;1.20;;;18.60;55.90;;;;;;6014528;23;20150;-82
2023/11/25 12:49:21;;;;;;;8.10;1.15;;;18.60;56.20;;;;;;6014530;23;20209;-84
2023/11/25 12:51:47;;;;;;;10.57;1.10;;;18.50;55.70;;;;;;6039151;23;20503;-80
2023/11/25 12:54:14;;;;;;;3.88;0.90;;;18.60;55.60;;;;;;6014125;23;20844;-79
2023/11/25 12:56:42;;;;;;;4.85;1.05;;;18.60;55.50;;;;;;6131223;23;20210;-82
2023/11/25 12:59:08;;;;;;;10.15;1.30;;;18.60;54.80;;;;;;6157522;23;20167;-80
2023/11/25 13:01:34;;;;;;;9.45;1.60;;;18.70;56.30;;;;;;6129349;23;20204;-81
2023/11/25 13:04:04;;;;;;;7.50;1.38;;;18.60;55.40;;;;;;6157487;23;20139;-82
2023/11/25 13:06:44;;;;;;;10.13;1.30;;;18.50;56.40;;;;;;6157673;23;20150;-80
2023/11/25 13:09:10;;;;;;;7.60;0.90;;;18.50;55.50;;;;;;6110825;23;20182;-79